Time;durP1;ratioP1;P1;durP2;ratioP2;P2;SDS_P1;SDS_P2;PMS_P1;PMS_P2;Temp;Humidity;BMP_temperature;BMP_pressure;BME280_temperature;BME280_humidity;BME280_pressure;Samples;Min_cycle;Max_cycle;Signal;HPM_P1;HPM_P2
2023/03/27 00:00:15;;;;;;;15.82;2.45;;;;;;;1.32;67.12;99947.28;10258237;28;20071;-80
2023/03/27 00:05:19;;;;;;;11.35;1.55;;;;;;;1.17;67.49;99962.13;10260468;28;20057;-81
2023/03/27 00:10:23;;;;;;;17.77;1.67;;;;;;;1.22;67.75;99970.69;10256892;28;20043;-79
2023/03/27 00:15:27;;;;;;;11.40;1.55;;;;;;;1.34;68.25;99971.03;10265107;28;20042;-78
2023/03/27 00:20:35;;;;;;;12.82;1.80;;;;;;;1.38;68.53;99986.69;10256585;28;20050;-80
2023/03/27 00:25:39;;;;;;;8.60;1.55;;;;;;;1.20;67.94;99991.06;10264434;28;20043;-80
2023/03/27 00:30:45;;;;;;;15.80;2.30;;;;;;;1.31;67.78;100003.78;10264093;28;20050;-78
2023/03/27 00:35:49;;;;;;;16.15;1.88;;;;;;;1.33;67.98;100012.50;10257143;28;20219;-81
2023/03/27 00:40:54;;;;;;;8.15;1.90;;;;;;;1.27;68.09;100013.66;10257878;28;20122;-80
2023/03/27 00:46:03;;;;;;;12.32;1.77;;;;;;;1.20;68.13;100012.25;10255257;28;20495;-81
2023/03/27 00:51:06;;;;;;;17.40;2.38;;;;;;;1.16;68.10;100023.91;10264559;28;20072;-79
2023/03/27 00:56:10;;;;;;;18.70;1.70;;;;;;;1.24;68.25;100024.41;10263289;28;20031;-79
2023/03/27 01:01:16;;;;;;;8.82;1.50;;;;;;;1.25;68.05;100035.84;10249165;28;20599;-78
2023/03/27 01:06:21;;;;;;;11.20;1.90;;;;;;;1.20;68.40;100036.06;10261654;28;20118;-80
2023/03/27 01:11:38;;;;;;;14.43;2.13;;;;;;;1.12;68.06;100042.63;10254693;28;20043;-80
2023/03/27 01:16:49;;;;;;;14.68;2.15;;;;;;;1.13;68.17;100052.31;10257064;28;20565;-80
2023/03/27 01:22:20;;;;;;;10.13;1.50;;;;;;;1.14;68.08;100061.97;10254451;28;20058;-78
2023/03/27 01:27:44;;;;;;;12.47;2.53;;;;;;;1.00;67.59;100067.88;10254901;28;20502;-80
2023/03/27 01:33:20;;;;;;;13.52;2.25;;;;;;;0.88;68.25;100071.09;10256974;28;20138;-80
2023/03/27 01:38:55;;;;;;;9.10;2.00;;;;;;;1.01;68.01;100088.97;10243784;28;20081;-80
2023/03/27 01:44:04;;;;;;;15.98;3.00;;;;;;;0.92;68.30;100089.41;10219500;28;20482;-80
2023/03/27 01:49:13;;;;;;;12.32;2.70;;;;;;;0.68;68.67;100087.88;10253487;28;20039;-80
2023/03/27 01:54:20;;;;;;;9.73;1.88;;;;;;;0.77;68.82;100098.91;10263716;28;20055;-81
2023/03/27 01:59:27;;;;;;;7.78;1.67;;;;;;;0.78;69.11;100102.41;10256409;28;20139;-81
2023/03/27 02:04:37;;;;;;;10.57;1.60;;;;;;;0.60;69.24;100109.34;10256715;28;20043;-80
2023/03/27 02:09:44;;;;;;;12.73;1.92;;;;;;;0.71;69.48;100119.44;10273254;28;20055;-80
2023/03/27 02:14:54;;;;;;;16.20;1.58;;;;;;;0.22;70.14;100130.38;10252569;28;20043;-80
2023/03/27 02:20:01;;;;;;;14.32;1.70;;;;;;;0.21;70.94;100138.34;10250339;28;20036;-80
2023/03/27 02:25:26;;;;;;;9.43;1.92;;;;;;;0.22;70.91;100145.34;10271658;28;20138;-80
2023/03/27 02:30:39;;;;;;;13.40;1.50;;;;;;;0.15;70.84;100147.41;10248232;28;20521;-81
2023/03/27 02:35:51;;;;;;;16.35;2.13;;;;;;;0.22;70.46;100163.84;10258018;28;20058;-78
2023/03/27 02:41:01;;;;;;;;;;;;;;;0.30;70.29;100161.75;10260409;28;20102;-80
2023/03/27 02:46:29;;;;;;;14.00;1.52;;;;;;;0.21;70.64;100172.69;10261652;28;20001;-79
2023/03/27 02:51:39;;;;;;;10.55;1.70;;;;;;;0.05;71.16;100168.03;10258691;28;20146;-80
2023/03/27 02:56:47;;;;;;;12.57;1.30;;;;;;;-0.07;71.50;100171.19;10252646;28;20050;-79
2023/03/27 03:02:00;;;;;;;12.27;1.92;;;;;;;-0.24;71.89;100179.78;10253173;28;20505;-79
2023/03/27 03:07:07;;;;;;;18.95;1.90;;;;;;;-0.06;71.57;100191.38;10255019;28;20764;-79
2023/03/27 03:12:11;;;;;;;8.40;1.50;;;;;;;0.03;71.24;100198.97;10259455;28;20084;-80
2023/03/27 03:17:20;;;;;;;13.02;1.63;;;;;;;-0.00;71.35;100208.75;10268551;28;20043;-79
2023/03/27 03:22:23;;;;;;;6.82;1.73;;;;;;;-0.05;72.00;100214.25;10242725;28;20115;-79
2023/03/27 03:27:28;;;;;;;14.23;1.83;;;;;;;-0.47;73.09;100219.41;10257752;28;20134;-80
2023/03/27 03:32:43;;;;;;;10.40;2.08;;;;;;;-0.09;72.29;100225.84;10258690;28;20078;-79
2023/03/27 03:37:49;;;;;;;9.23;2.35;;;;;;;-0.14;72.36;100235.72;10257363;28;20077;-79
2023/03/27 03:42:53;;;;;;;16.25;2.45;;;;;;;-0.44;73.12;100243.03;10259564;28;20058;-79
2023/03/27 03:48:02;;;;;;;13.82;1.77;;;;;;;-0.64;73.99;100251.69;10254256;28;20040;-80
2023/03/27 03:53:05;;;;;;;12.25;1.60;;;;;;;-0.38;73.15;100259.53;10262163;28;20415;-80
2023/03/27 03:58:08;;;;;;;10.00;2.08;;;;;;;-0.45;74.08;100273.84;10277402;28;20067;-80
2023/03/27 04:03:14;;;;;;;21.23;2.10;;;;;;;-0.43;72.97;100279.09;10248360;28;20110;-80
2023/03/27 04:08:17;;;;;;;17.85;2.83;;;;;;;-0.45;73.72;100283.56;10258229;28;20043;-80
2023/03/27 04:13:30;;;;;;;14.82;2.00;;;;;;;-0.36;73.40;100291.97;10250120;29;20047;-80
2023/03/27 04:18:42;;;;;;;16.03;2.00;;;;;;;-0.11;72.45;100293.69;10256049;28;20067;-79
2023/03/27 04:23:52;;;;;;;11.20;1.95;;;;;;;-0.30;73.29;100294.41;10245550;28;20515;-79
2023/03/27 04:29:02;;;;;;;13.35;2.13;;;;;;;-0.32;73.00;100304.16;10264335;28;20071;-80
2023/03/27 04:34:39;;;;;;;13.43;1.95;;;;;;;-0.31;73.92;100308.50;10281828;28;20113;-80
2023/03/27 04:39:59;;;;;;;6.70;2.05;;;;;;;-0.36;73.76;100315.72;10260238;28;20195;-80
2023/03/27 04:45:03;;;;;;;11.45;3.70;;;;;;;-0.30;74.15;100319.94;10269621;28;20085;-80
2023/03/27 04:50:09;;;;;;;10.80;2.67;;;;;;;-0.01;72.96;100331.19;10265567;28;20051;-80
2023/03/27 04:55:12;;;;;;;21.02;3.20;;;;;;;-0.25;73.96;100333.81;10255118;28;20047;-78
2023/03/27 05:00:21;;;;;;;16.10;3.03;;;;;;;-0.09;74.29;100337.59;10253980;28;20044;-80
2023/03/27 05:05:49;;;;;;;8.20;2.30;;;;;;;0.06;73.91;100348.53;10248848;28;20568;-79
2023/03/27 05:10:52;;;;;;;14.13;2.75;;;;;;;0.18;73.65;100340.13;10254898;28;20055;-78
2023/03/27 05:15:57;;;;;;;12.13;2.72;;;;;;;0.37;74.14;100362.25;10251822;28;20103;-78
2023/03/27 05:21:04;;;;;;;13.02;2.90;;;;;;;0.38;73.15;100365.75;10257962;28;20071;-80
2023/03/27 05:26:07;;;;;;;6.13;2.30;;;;;;;0.60;73.31;100389.56;10273861;28;20082;-80
2023/03/27 05:31:23;;;;;;;11.80;2.60;;;;;;;0.52;74.68;100400.47;10255442;28;20090;-80
2023/03/27 05:36:53;;;;;;;10.70;2.42;;;;;;;0.58;74.30;100387.00;10256062;28;20106;-80
2023/03/27 05:41:57;;;;;;;14.77;2.92;;;;;;;0.36;74.84;100397.53;10256022;28;20506;-80
2023/03/27 05:47:00;;;;;;;12.32;2.53;;;;;;;0.05;76.02;100395.19;10258195;28;20134;-79
2023/03/27 05:52:07;;;;;;;7.80;2.05;;;;;;;0.15;77.48;100387.78;10252284;29;20074;-80
2023/03/27 05:57:10;;;;;;;18.92;5.10;;;;;;;0.55;76.84;100392.41;10254508;29;20054;-81
2023/03/27 06:02:17;;;;;;;17.25;5.18;;;;;;;0.64;75.34;100400.91;10254207;28;20091;-81
2023/03/27 06:07:31;;;;;;;18.60;3.30;;;;;;;0.78;74.16;100388.84;10248613;28;20439;-82
2023/03/27 06:12:39;;;;;;;13.27;2.38;;;;;;;0.57;73.95;100405.56;10248049;28;20069;-80
2023/03/27 06:17:51;;;;;;;6.05;1.95;;;;;;;0.53;73.92;100411.88;10250721;28;20047;-80
2023/03/27 06:22:59;;;;;;;10.82;1.95;;;;;;;0.39;73.37;100417.72;10262471;28;20503;-81
2023/03/27 06:28:08;;;;;;;9.50;2.03;;;;;;;0.78;73.29;100431.16;10262550;28;20691;-80
2023/03/27 06:33:16;;;;;;;12.60;2.45;;;;;;;0.80;73.69;100428.47;10252356;28;20139;-80
2023/03/27 06:38:21;;;;;;;14.00;2.60;;;;;;;1.18;72.96;100428.66;10247786;28;20507;-79
2023/03/27 06:43:25;;;;;;;13.38;1.85;;;;;;;1.60;71.07;100433.09;10250591;28;20106;-79
2023/03/27 06:48:49;;;;;;;7.22;2.70;;;;;;;1.61;70.21;100448.03;10245171;28;20049;-79
2023/03/27 06:53:55;;;;;;;8.40;2.00;;;;;;;1.63;69.49;100451.50;10244482;28;20419;-79
2023/03/27 06:58:58;;;;;;;10.05;1.70;;;;;;;1.79;69.05;100460.50;10243056;28;20051;-78
2023/03/27 07:04:02;;;;;;;5.57;2.17;;;;;;;2.37;69.26;100467.66;10245089;28;20047;-80
2023/03/27 07:09:29;;;;;;;7.80;1.67;;;;;;;2.22;67.10;100466.53;10255568;28;20054;-80
2023/03/27 07:14:37;;;;;;;8.93;3.38;;;;;;;2.66;66.57;100476.06;10269716;28;20509;-81
2023/03/27 07:19:40;;;;;;;7.68;1.33;;;;;;;2.41;68.26;100474.50;10244238;28;20043;-80
2023/03/27 07:24:48;;;;;;;13.82;1.75;;;;;;;2.92;66.66;100477.50;10246445;28;20047;-79
2023/03/27 07:29:53;;;;;;;8.82;2.10;;;;;;;3.27;65.26;100471.34;10248964;29;20086;-79
2023/03/27 07:34:57;;;;;;;12.05;2.03;;;;;;;3.11;66.78;100494.25;10232842;28;20439;-80
2023/03/27 07:40:21;;;;;;;7.45;1.55;;;;;;;3.59;63.87;100497.22;10236702;28;20503;-80
2023/03/27 07:46:13;;;;;;;12.40;2.72;;;;;;;4.10;63.92;100498.16;10226883;28;20066;-79
2023/03/27 07:51:17;;;;;;;9.88;2.40;;;;;;;4.52;61.85;100507.47;10242945;28;20442;-81
2023/03/27 07:56:22;;;;;;;7.30;1.63;;;;;;;4.73;61.19;100505.44;10241125;28;20071;-79
2023/03/27 08:01:40;;;;;;;7.85;1.70;;;;;;;5.06;59.74;100511.59;10222982;28;20177;-79
2023/03/27 08:06:43;;;;;;;6.80;2.42;;;;;;;4.68;61.15;100510.16;10240330;28;20051;-79
2023/03/27 08:11:56;;;;;;;12.65;2.72;;;;;;;5.61;59.66;100522.72;10246682;28;20119;-79
2023/03/27 08:16:59;;;;;;;6.10;1.60;;;;;;;5.05;58.26;100525.84;10258152;28;20094;-80
2023/03/27 08:22:19;;;;;;;7.22;1.88;;;;;;;5.66;57.84;100536.63;10258056;28;20051;-80
2023/03/27 08:27:43;;;;;;;11.70;2.35;;;;;;;5.87;58.28;100531.81;10244026;28;20051;-79
2023/03/27 08:32:48;;;;;;;11.48;1.85;;;;;;;5.28;57.70;100532.53;10240344;28;20081;-80
2023/03/27 08:37:51;;;;;;;5.60;1.65;;;;;;;4.91;59.65;100535.50;10264324;28;20043;-79
2023/03/27 08:43:06;;;;;;;6.50;1.85;;;;;;;4.20;58.38;100541.94;10238233;28;20499;-79
2023/03/27 08:48:15;;;;;;;11.80;1.50;;;;;;;3.50;60.17;100555.19;10261381;28;20044;-79
2023/03/27 08:53:32;;;;;;;7.35;2.17;;;;;;;3.73;60.85;100551.41;10265584;28;20827;-79
2023/03/27 08:58:40;;;;;;;8.73;1.77;;;;;;;5.75;57.40;100562.72;10251376;28;20501;-79
2023/03/27 09:04:00;;;;;;;6.85;1.60;;;;;;;5.67;56.24;100559.66;10248712;28;20454;-79
2023/03/27 09:09:13;;;;;;;4.32;1.33;;;;;;;5.70;56.00;100560.34;10243253;28;20036;-79
2023/03/27 09:14:30;;;;;;;7.10;1.30;;;;;;;6.63;54.27;100574.38;10244702;28;20036;-79
2023/03/27 09:19:43;;;;;;;6.85;1.20;;;;;;;6.95;52.42;100567.06;10243708;28;20044;-79
2023/03/27 09:24:53;;;;;;;4.00;0.90;;;;;;;7.10;51.66;100578.59;10253680;28;20043;-80
2023/03/27 09:30:28;;;;;;;4.95;0.80;;;;;;;7.90;49.23;100562.72;10253279;28;20050;-79
2023/03/27 09:35:46;;;;;;;5.57;1.20;;;;;;;7.33;49.33;100568.25;10239559;29;20058;-79
2023/03/27 09:40:55;;;;;;;6.38;0.88;;;;;;;7.09;48.62;100573.34;10248956;28;20050;-80
2023/03/27 09:46:03;;;;;;;3.63;1.00;;;;;;;7.77;48.62;100576.03;10245872;28;20091;-79
2023/03/27 09:51:35;;;;;;;3.30;0.70;;;;;;;8.98;46.83;100577.59;10268806;28;20039;-81
2023/03/27 09:56:42;;;;;;;3.45;1.45;;;;;;;8.39;47.16;100580.75;10257219;28;20044;-81
2023/03/27 10:01:49;;;;;;;4.38;0.95;;;;;;;7.74;47.85;100589.63;10249031;28;20173;-81
2023/03/27 10:07:00;;;;;;;4.75;1.05;;;;;;;6.58;50.02;100593.34;10247516;28;20507;-77
2023/03/27 10:12:24;;;;;;;5.47;0.80;;;;;;;7.13;46.76;100594.44;10249449;28;20050;-79
2023/03/27 10:17:38;;;;;;;2.40;0.85;;;;;;;8.57;45.28;100586.72;10248278;28;20051;-79
2023/03/27 10:22:52;;;;;;;8.88;0.77;;;;;;;7.76;46.77;100602.88;10236904;28;20054;-81
2023/03/27 10:28:17;;;;;;;5.00;0.95;;;;;;;9.26;41.81;100590.69;10244176;28;20090;-79
2023/03/27 10:33:41;;;;;;;4.55;0.98;;;;;;;7.47;46.54;100594.94;10252046;29;20051;-80
2023/03/27 10:39:09;;;;;;;10.02;1.20;;;;;;;6.85;48.33;100604.13;10246768;28;20047;-80
2023/03/27 10:44:24;;;;;;;3.30;0.70;;;;;;;7.54;42.30;100600.75;10255508;28;20043;-80
2023/03/27 10:49:41;;;;;;;7.10;1.20;;;;;;;9.02;45.10;100595.16;10267005;28;20126;-79
2023/03/27 10:55:04;;;;;;;4.18;0.82;;;;;;;10.59;42.03;100590.63;10240891;29;20055;-79
2023/03/27 11:00:17;;;;;;;6.80;0.95;;;;;;;8.57;42.81;100594.75;10243904;29;20086;-79
2023/03/27 11:05:43;;;;;;;8.95;0.80;;;;;;;8.26;44.57;100599.50;10263553;28;20047;-81
2023/03/27 11:11:06;;;;;;;5.50;1.25;;;;;;;6.70;51.35;100613.09;10251706;28;20136;-80
2023/03/27 11:16:16;;;;;;;5.15;0.80;;;;;;;6.56;51.29;100623.75;10240679;28;20051;-80
2023/03/27 11:21:43;;;;;;;2.25;0.50;;;;;;;7.12;54.70;100646.13;10248271;28;20062;-80
2023/03/27 11:26:59;;;;;;;6.03;1.08;;;;;;;8.45;52.62;100646.41;10242207;28;20510;-79
2023/03/27 11:32:11;;;;;;;6.80;0.90;;;;;;;9.95;49.63;100646.50;10247565;28;20047;-80
2023/03/27 11:37:29;;;;;;;5.45;0.95;;;;;;;11.24;48.15;100640.19;10254670;28;20138;-82
2023/03/27 11:42:38;;;;;;;5.18;1.65;;;;;;;11.53;47.32;100631.59;10252821;28;20044;-81
2023/03/27 11:48:07;;;;;;;3.03;0.95;;;;;;;11.76;46.15;100635.06;10249817;28;20055;-79
2023/03/27 11:53:34;;;;;;;4.10;1.08;;;;;;;10.06;47.05;100641.19;10249876;28;20035;-80
2023/03/27 11:59:01;;;;;;;4.57;0.98;;;;;;;10.54;45.82;100651.03;10263934;28;20138;-79
2023/03/27 12:04:17;;;;;;;3.55;1.15;;;;;;;10.77;43.05;100635.81;10268344;28;20142;-81
2023/03/27 12:09:58;;;;;;;1.00;0.50;;;;;;;9.96;43.31;100621.41;10232083;28;20058;-80
2023/03/27 12:15:40;;;;;;;3.53;0.73;;;;;;;10.15;41.38;100628.94;10271977;28;20046;-79
2023/03/27 12:21:16;;;;;;;3.50;1.00;;;;;;;9.80;44.67;100632.38;10269675;28;20051;-80
2023/03/27 12:26:51;;;;;;;2.33;1.00;;;;;;;9.34;43.07;100629.53;10254504;29;20503;-80
2023/03/27 12:32:49;;;;;;;4.00;0.70;;;;;;;9.92;41.77;100630.66;10239928;29;20057;-80
2023/03/27 12:37:59;;;;;;;1.52;0.63;;;;;;;8.78;45.56;100649.50;10245472;28;20090;-80
2023/03/27 12:43:28;;;;;;;5.50;0.50;;;;;;;5.48;62.71;100743.69;10250249;28;20051;-79
2023/03/27 12:48:50;;;;;;;;;;;;;;;3.86;69.77;100721.72;10256174;28;20047;-79
2023/03/27 12:53:58;;;;;;;2.25;0.50;;;;;;;3.91;68.69;100724.16;10256817;28;19982;-79
2023/03/27 12:59:14;;;;;;;2.08;0.50;;;;;;;6.85;62.96;100705.59;10246110;29;20051;-79
2023/03/27 13:04:40;;;;;;;8.63;2.05;;;;;;;9.70;55.78;100693.88;10243147;29;20051;-79
2023/03/27 13:09:59;;;;;;;6.30;0.60;;;;;;;9.11;54.30;100688.31;10255451;28;20063;-79
2023/03/27 13:15:56;;;;;;;1.77;0.40;;;;;;;10.03;52.83;100684.38;10249533;29;20130;-80
2023/03/27 13:21:20;;;;;;;1.13;0.70;;;;;;;12.21;47.09;100686.13;10266962;28;20047;-80
2023/03/27 13:26:36;;;;;;;3.70;0.68;;;;;;;12.99;39.63;100671.41;10256789;28;20047;-79
2023/03/27 13:32:02;;;;;;;3.00;1.00;;;;;;;11.95;38.26;100672.09;10253824;28;20043;-79
2023/03/27 13:37:47;;;;;;;1.52;0.60;;;;;;;11.46;42.68;100698.50;10248670;28;20071;-80
2023/03/27 13:43:00;;;;;;;1.52;0.50;;;;;;;11.36;40.99;100697.50;10243305;28;20131;-78
2023/03/27 13:48:42;;;;;;;0.82;0.75;;;;;;;14.74;37.36;100688.06;10263931;28;20043;-79
2023/03/27 13:53:53;;;;;;;2.10;0.50;;;;;;;14.87;37.17;100689.66;10250647;29;20047;-80
2023/03/27 13:59:43;;;;;;;2.30;0.68;;;;;;;9.24;43.45;100699.88;10257801;28;20048;-79
2023/03/27 14:05:09;;;;;;;1.67;0.50;;;;;;;6.06;49.26;100705.84;10248917;28;20051;-79
2023/03/27 14:10:36;;;;;;;1.17;0.47;;;;;;;6.88;51.80;100719.75;10259621;28;20039;-80
2023/03/27 14:16:02;;;;;;;2.35;0.90;;;;;;;8.63;48.26;100713.97;10253984;28;20503;-79
2023/03/27 14:21:21;;;;;;;1.25;0.68;;;;;;;9.15;44.85;100708.56;10250768;29;20047;-79
2023/03/27 14:26:44;;;;;;;1.30;0.60;;;;;;;7.10;49.91;100732.66;10247707;28;20051;-79
2023/03/27 14:31:49;;;;;;;2.45;0.80;;;;;;;6.10;55.05;100749.19;10252180;28;20135;-79
2023/03/27 14:37:28;;;;;;;6.22;1.42;;;;;;;5.60;56.66;100767.03;10248343;28;20055;-79
2023/03/27 14:42:35;;;;;;;4.38;0.77;;;;;;;4.55;61.60;100744.97;10256723;28;20475;-79
2023/03/27 14:47:39;;;;;;;1.10;0.30;;;;;;;6.74;56.16;100747.25;10250444;28;20055;-78
2023/03/27 14:52:44;;;;;;;2.80;0.52;;;;;;;7.65;56.53;100740.81;10270274;28;20039;-78
2023/03/27 14:58:17;;;;;;;2.88;0.50;;;;;;;6.76;54.14;100745.38;10250607;28;20454;-80
2023/03/27 15:03:24;;;;;;;2.25;0.40;;;;;;;6.34;57.75;100774.47;10254752;28;20062;-79
2023/03/27 15:08:35;;;;;;;4.15;1.02;;;;;;;6.21;54.69;100764.59;10241179;28;20069;-79
2023/03/27 15:13:48;;;;;;;5.03;0.65;;;;;;;7.21;52.92;100771.16;10256446;28;20053;-78
2023/03/27 15:19:08;;;;;;;1.98;0.73;;;;;;;7.83;52.23;100770.88;10248778;29;20081;-79
2023/03/27 15:24:18;;;;;;;4.35;0.85;;;;;;;7.17;52.90;100769.63;10239211;28;20122;-78
2023/03/27 15:29:31;;;;;;;2.17;0.50;;;;;;;7.30;51.88;100763.53;10248374;28;20058;-79
2023/03/27 15:34:44;;;;;;;2.45;0.52;;;;;;;7.40;48.59;100762.84;10241282;28;20086;-78
2023/03/27 15:40:27;;;;;;;4.75;0.90;;;;;;;8.06;48.86;100768.53;10254040;28;20047;-79
2023/03/27 15:45:39;;;;;;;2.35;0.60;;;;;;;6.90;48.75;100779.28;10233816;29;20054;-80
2023/03/27 15:50:53;;;;;;;4.73;2.20;;;;;;;6.69;57.42;100803.63;10252963;28;20047;-79
2023/03/27 15:55:59;;;;;;;4.43;1.15;;;;;;;7.59;55.45;100807.16;10243128;28;20554;-79
2023/03/27 16:01:06;;;;;;;4.30;1.63;;;;;;;6.90;56.71;100809.53;10247796;28;20531;-80
2023/03/27 16:06:29;;;;;;;5.65;1.08;;;;;;;6.60;57.10;100809.47;10240460;28;20051;-80
2023/03/27 16:11:38;;;;;;;3.53;1.33;;;;;;;6.74;56.33;100814.84;10250177;28;20468;-79
2023/03/27 16:16:41;;;;;;;3.95;0.80;;;;;;;7.80;53.41;100815.69;10247731;28;20051;-79
2023/03/27 16:21:54;;;;;;;2.85;0.52;;;;;;;7.78;51.62;100818.44;10238093;28;20051;-80
2023/03/27 16:26:59;;;;;;;2.38;0.57;;;;;;;6.51;52.92;100818.00;10249618;28;20043;-79
2023/03/27 16:32:02;;;;;;;3.65;0.50;;;;;;;6.52;51.90;100815.25;10263632;28;20047;-79
2023/03/27 16:37:05;;;;;;;2.55;0.55;;;;;;;7.16;43.95;100813.31;10256575;28;20077;-79
2023/03/27 16:42:12;;;;;;;4.88;0.55;;;;;;;5.60;44.11;100824.81;10255608;28;20039;-80
2023/03/27 16:47:16;;;;;;;3.25;0.75;;;;;;;5.53;46.36;100834.94;10247596;29;20091;-79
2023/03/27 16:52:19;;;;;;;5.55;0.77;;;;;;;5.22;47.31;100847.19;10250659;28;20039;-80
2023/03/27 16:57:23;;;;;;;4.38;0.80;;;;;;;5.13;46.96;100844.13;10259013;28;20395;-79
2023/03/27 17:02:27;;;;;;;5.15;0.60;;;;;;;5.85;45.62;100838.53;10253950;28;20035;-79
2023/03/27 17:07:30;;;;;;;3.78;1.15;;;;;;;5.77;46.58;100848.75;10267974;28;20102;-77
2023/03/27 17:12:34;;;;;;;4.57;0.80;;;;;;;5.73;47.06;100860.50;10256861;28;20422;-80
2023/03/27 17:17:37;;;;;;;7.25;0.85;;;;;;;4.81;49.31;100875.88;10250704;28;20490;-79
2023/03/27 17:22:40;;;;;;;1.73;0.30;;;;;;;3.77;49.37;100875.44;10248601;28;20070;-79
2023/03/27 17:27:44;;;;;;;4.18;0.70;;;;;;;4.65;50.26;100894.38;10264672;28;20495;-79
2023/03/27 17:32:47;;;;;;;10.95;1.35;;;;;;;4.65;51.03;100901.50;10249203;29;20067;-79
2023/03/27 17:37:50;;;;;;;4.53;0.73;;;;;;;4.14;51.83;100902.09;10259170;28;20047;-80
2023/03/27 17:42:54;;;;;;;3.70;1.00;;;;;;;4.10;53.15;100908.47;10243636;28;20082;-77
2023/03/27 17:47:57;;;;;;;5.07;0.80;;;;;;;4.07;53.95;100924.56;10254419;28;20062;-77
2023/03/27 17:53:00;;;;;;;7.57;1.13;;;;;;;4.00;54.06;100931.06;10254648;28;20046;-78
2023/03/27 17:58:07;;;;;;;5.07;1.08;;;;;;;3.61;55.04;100936.38;10250959;28;20082;-79
2023/03/27 18:03:12;;;;;;;6.30;1.60;;;;;;;3.37;55.32;100946.22;10254416;28;20039;-79
2023/03/27 18:08:17;;;;;;;3.10;0.98;;;;;;;3.64;55.74;100955.69;10263222;28;20086;-77
2023/03/27 18:13:21;;;;;;;7.03;0.60;;;;;;;3.37;55.86;100959.50;10243210;28;20035;-77
2023/03/27 18:18:25;;;;;;;4.35;0.88;;;;;;;3.14;57.52;100953.38;10260874;28;20050;-77
2023/03/27 18:23:28;;;;;;;8.57;2.30;;;;;;;3.48;56.51;100968.78;10238388;28;20043;-80
2023/03/27 18:28:33;;;;;;;11.35;1.40;;;;;;;3.26;57.22;100978.53;10252287;28;20051;-79
2023/03/27 18:33:36;;;;;;;5.65;0.93;;;;;;;2.81;57.84;100980.34;10248296;29;20043;-79
2023/03/27 18:38:40;;;;;;;6.97;1.35;;;;;;;2.79;58.73;100979.53;10264637;28;20122;-80
2023/03/27 18:43:45;;;;;;;6.15;1.08;;;;;;;2.74;59.27;100992.13;10251099;28;20086;-77
2023/03/27 18:48:48;;;;;;;2.97;0.90;;;;;;;2.45;61.07;100992.34;10250737;28;20051;-80
2023/03/27 18:53:51;;;;;;;8.68;0.85;;;;;;;2.48;62.16;100993.09;10259775;28;20554;-79
2023/03/27 18:58:55;;;;;;;3.67;1.08;;;;;;;2.55;62.83;100993.75;10241917;29;20043;-79
2023/03/27 19:03:58;;;;;;;3.85;1.00;;;;;;;2.21;63.20;101002.91;10250085;28;20043;-80
2023/03/27 19:09:01;;;;;;;6.32;1.10;;;;;;;2.38;64.27;101012.91;10266843;28;20051;-79
2023/03/27 19:14:05;;;;;;;9.00;1.10;;;;;;;2.37;64.83;101020.00;10250260;28;20097;-77
2023/03/27 19:19:12;;;;;;;4.13;1.23;;;;;;;2.11;65.22;101026.25;10251337;28;20044;-78
2023/03/27 19:24:33;;;;;;;5.60;1.13;;;;;;;2.33;64.07;101029.00;10248278;28;20046;-78
2023/03/27 19:29:37;;;;;;;3.90;1.20;;;;;;;2.41;63.94;101012.78;10259127;28;20039;-77
2023/03/27 19:34:40;;;;;;;4.15;1.95;;;;;;;2.34;63.72;101030.72;10256314;28;20070;-78
2023/03/27 19:39:45;;;;;;;4.93;1.00;;;;;;;2.09;63.62;101038.69;10255182;28;20478;-78
2023/03/27 19:44:49;;;;;;;7.03;1.20;;;;;;;2.73;62.00;101034.63;10240296;29;20152;-79
2023/03/27 19:49:52;;;;;;;4.72;1.13;;;;;;;2.40;63.12;101040.25;10252906;28;20409;-78
2023/03/27 19:55:24;;;;;;;3.60;0.95;;;;;;;2.28;62.94;101036.25;10241232;28;20054;-79
2023/03/27 20:00:28;;;;;;;5.28;1.00;;;;;;;2.02;63.00;101036.31;10242567;28;20043;-78
2023/03/27 20:05:33;;;;;;;2.88;0.90;;;;;;;2.20;62.92;101046.28;10266919;28;20565;-79
2023/03/27 20:10:36;;;;;;;4.22;1.02;;;;;;;2.38;62.27;101045.59;10261907;28;20039;-79
2023/03/27 20:15:40;;;;;;;6.32;1.33;;;;;;;2.20;61.39;101046.28;10253984;28;20487;-78
2023/03/27 20:20:45;;;;;;;3.78;1.10;;;;;;;1.98;62.21;101053.25;10288969;28;20083;-79
2023/03/27 20:25:50;;;;;;;5.65;1.25;;;;;;;1.92;62.74;101068.44;10273825;29;20055;-79
2023/03/27 20:30:54;;;;;;;4.40;0.98;;;;;;;1.61;63.14;101067.72;10253254;28;20047;-80
2023/03/27 20:35:57;;;;;;;3.25;1.10;;;;;;;1.92;61.38;101078.16;10245468;28;20052;-79
2023/03/27 20:41:02;;;;;;;5.03;0.80;;;;;;;1.76;62.98;101075.16;10244996;28;20050;-80
2023/03/27 20:46:09;;;;;;;6.85;0.80;;;;;;;1.53;62.73;101077.69;10263521;28;20075;-79
2023/03/27 20:51:16;;;;;;;3.90;1.02;;;;;;;1.67;62.66;101073.69;10254961;28;20098;-78
2023/03/27 20:56:20;;;;;;;2.75;1.10;;;;;;;1.79;62.27;101071.56;10248153;28;20059;-79
2023/03/27 21:01:26;;;;;;;9.35;1.40;;;;;;;1.83;62.04;101073.16;10269719;28;20070;-79
2023/03/27 21:06:29;;;;;;;11.48;1.45;;;;;;;2.34;60.96;101064.34;10254897;28;20085;-78
2023/03/27 21:11:32;;;;;;;5.65;0.95;;;;;;;1.87;62.20;101075.66;10249910;28;20509;-78
2023/03/27 21:16:37;;;;;;;6.38;1.25;;;;;;;1.89;61.92;101078.25;10254444;28;20043;-78
2023/03/27 21:21:40;;;;;;;9.25;1.38;;;;;;;1.86;62.01;101068.63;10258089;28;20469;-78
2023/03/27 21:26:43;;;;;;;8.30;1.70;;;;;;;1.96;61.73;101074.50;10257186;28;20051;-79
2023/03/27 21:31:47;;;;;;;7.65;1.23;;;;;;;1.95;61.69;101070.13;10265061;28;20042;-80
2023/03/27 21:36:50;;;;;;;10.05;1.25;;;;;;;1.78;63.23;101075.97;10256347;28;20106;-79
2023/03/27 21:41:53;;;;;;;11.95;1.65;;;;;;;1.40;62.99;101074.56;10260045;28;20071;-79
2023/03/27 21:46:57;;;;;;;10.70;1.77;;;;;;;1.40;63.44;101082.50;10275656;28;20077;-78
2023/03/27 21:52:00;;;;;;;5.78;1.30;;;;;;;1.96;62.61;101082.44;10261340;28;20055;-79
2023/03/27 21:57:02;;;;;;;9.77;1.40;;;;;;;1.73;62.69;101075.28;10258366;28;20119;-79
2023/03/27 22:02:07;;;;;;;12.48;1.80;;;;;;;1.80;63.05;101095.31;10257201;28;20043;-79
2023/03/27 22:07:10;;;;;;;13.50;3.17;;;;;;;1.81;63.72;101097.09;10257487;28;20466;-79
2023/03/27 22:12:13;;;;;;;9.23;1.63;;;;;;;1.70;64.10;101093.91;10260013;28;20043;-80
2023/03/27 22:17:17;;;;;;;6.97;2.33;;;;;;;1.83;63.26;101089.06;10254193;28;20122;-80
2023/03/27 22:22:20;;;;;;;14.05;3.65;;;;;;;1.68;63.54;101096.63;10256132;28;20048;-77
2023/03/27 22:27:23;;;;;;;7.95;2.65;;;;;;;1.58;64.66;101102.25;10278283;28;20048;-79
2023/03/27 22:32:27;;;;;;;10.93;1.83;;;;;;;1.60;64.49;101105.72;10259345;28;20051;-79
2023/03/27 22:37:30;;;;;;;5.82;1.55;;;;;;;1.33;65.07;101105.69;10253940;28;20388;-80
2023/03/27 22:42:33;;;;;;;18.05;2.05;;;;;;;1.24;65.64;101117.41;10254799;28;20098;-79
2023/03/27 22:47:37;;;;;;;8.65;1.50;;;;;;;1.44;65.54;101122.09;10246827;28;20459;-80
2023/03/27 22:52:40;;;;;;;29.75;2.28;;;;;;;1.63;65.14;101134.75;10272110;28;20040;-79
2023/03/27 22:57:43;;;;;;;6.93;0.90;;;;;;;1.23;66.80;101134.19;10265102;28;20047;-78
2023/03/27 23:02:47;;;;;;;15.73;2.22;;;;;;;1.33;66.77;101141.88;10260538;29;20407;-79
2023/03/27 23:07:50;;;;;;;5.32;0.95;;;;;;;1.23;67.26;101143.91;10268255;28;20048;-78
2023/03/27 23:12:53;;;;;;;11.55;1.77;;;;;;;1.35;66.64;101148.88;10266729;28;20053;-79
2023/03/27 23:17:57;;;;;;;9.57;1.50;;;;;;;1.65;65.97;101149.69;10247733;28;20073;-79
2023/03/27 23:23:00;;;;;;;8.00;1.60;;;;;;;1.48;66.07;101154.63;10257292;28;20047;-79
2023/03/27 23:28:03;;;;;;;20.10;3.90;;;;;;;1.86;65.39;101156.06;10258840;28;20648;-80
2023/03/27 23:33:09;;;;;;;10.95;2.05;;;;;;;1.37;67.01;101162.94;10269136;28;20060;-78
2023/03/27 23:38:12;;;;;;;10.88;1.95;;;;;;;1.88;66.02;101169.28;10258620;28;20044;-79
2023/03/27 23:43:15;;;;;;;10.98;1.83;;;;;;;1.42;67.17;101170.72;10251887;28;20047;-80
2023/03/27 23:48:19;;;;;;;10.25;2.17;;;;;;;1.43;67.21;101178.63;10251208;28;20055;-80
2023/03/27 23:53:24;;;;;;;14.10;2.05;;;;;;;1.43;67.00;101189.22;10251601;28;20044;-79
2023/03/27 23:58:31;;;;;;;15.82;2.70;;;;;;;1.43;67.55;101191.84;10263621;28;20391;-79
